createdAt,value
2022-12-25T00:01:44.425Z,60.39
2022-12-25T00:06:47.252Z,66.48
2022-12-25T00:11:50.101Z,66.01
2022-12-25T00:16:52.960Z,65.28
2022-12-25T00:21:55.776Z,65.72
2022-12-25T00:26:58.580Z,65.12
2022-12-25T00:32:01.525Z,61.25
2022-12-25T00:37:04.644Z,59.20
2022-12-25T00:42:19.452Z,60.86
2022-12-25T00:47:22.415Z,65.20
2022-12-25T00:52:25.251Z,61.36
2022-12-25T00:57:28.060Z,62.03
2022-12-25T01:02:31.052Z,55.00
2022-12-25T01:07:34.036Z,55.63
2022-12-25T01:12:40.661Z,58.63
2022-12-25T01:17:44.166Z,58.83
2022-12-25T01:22:47.488Z,61.24
2022-12-25T01:27:50.289Z,69.67
2022-12-25T01:32:53.070Z,69.66
2022-12-25T01:37:55.903Z,67.98
2022-12-25T01:42:58.712Z,63.77
2022-12-25T01:48:06.068Z,62.04
2022-12-25T01:53:09.371Z,60.67
2022-12-25T01:58:12.318Z,54.80
2022-12-25T02:03:15.312Z,59.29
2022-12-25T02:08:20.748Z,64.09
2022-12-25T02:13:23.518Z,66.49
2022-12-25T02:18:51.141Z,59.88
2022-12-25T02:24:28.240Z,53.43
2022-12-25T02:29:42.839Z,54.69
2022-12-25T02:35:13.526Z,58.37
2022-12-25T02:40:21.186Z,67.23
2022-12-25T02:46:19.257Z,66.71
2022-12-25T02:51:45.880Z,62.09
2022-12-25T02:57:08.816Z,61.94
2022-12-25T03:02:31.588Z,57.53
2022-12-25T03:07:39.667Z,57.33
2022-12-25T03:12:53.728Z,58.60
2022-12-25T03:18:00.246Z,68.49
2022-12-25T03:23:22.472Z,69.21
2022-12-25T03:28:25.489Z,63.15
2022-12-25T03:33:47.164Z,56.99
2022-12-25T03:39:21.289Z,56.32
2022-12-25T03:44:51.443Z,62.02
2022-12-25T03:50:23.788Z,67.16
2022-12-25T03:55:59.429Z,64.06
2022-12-25T04:01:21.113Z,63.08
2022-12-25T04:06:42.477Z,63.11
2022-12-25T04:12:03.966Z,63.43
2022-12-25T04:17:32.670Z,63.53
2022-12-25T04:22:53.754Z,64.97
2022-12-25T04:28:20.875Z,65.45
2022-12-25T04:33:42.077Z,65.25
2022-12-25T04:38:44.868Z,65.22
2022-12-25T04:43:47.866Z,65.32
2022-12-25T04:48:50.670Z,64.52
2022-12-25T04:53:53.948Z,64.34
2022-12-25T04:58:56.732Z,64.67
2022-12-25T05:03:59.916Z,64.21
2022-12-25T05:09:03.270Z,65.08
2022-12-25T05:14:06.283Z,65.00
2022-12-25T05:19:09.330Z,64.50
2022-12-25T05:24:12.191Z,64.84
2022-12-25T05:29:15.139Z,64.62
2022-12-25T05:34:17.959Z,64.26
2022-12-25T05:39:20.746Z,64.19
2022-12-25T05:44:23.802Z,64.20
2022-12-25T05:49:26.653Z,64.28
2022-12-25T05:54:29.505Z,64.29
2022-12-25T05:59:33.576Z,64.13
2022-12-25T06:04:36.741Z,64.12
2022-12-25T06:09:39.606Z,64.06
2022-12-25T06:14:42.440Z,64.13
2022-12-25T06:19:45.293Z,64.04
2022-12-25T06:24:48.140Z,63.73
2022-12-25T06:29:51.202Z,63.36
2022-12-25T06:34:54.029Z,63.31
2022-12-25T06:39:56.840Z,63.83
2022-12-25T06:44:59.892Z,63.79
2022-12-25T06:50:02.724Z,64.29
2022-12-25T06:55:05.905Z,64.80
2022-12-25T07:00:10.720Z,65.68
2022-12-25T07:05:13.689Z,66.26
2022-12-25T07:10:16.631Z,65.78
2022-12-25T07:15:19.423Z,65.41
2022-12-25T07:20:22.439Z,64.91
2022-12-25T07:25:25.212Z,65.02
2022-12-25T07:30:29.216Z,65.13
2022-12-25T07:35:32.032Z,65.57
2022-12-25T07:40:35.567Z,65.32
2022-12-25T07:45:39.289Z,65.07
2022-12-25T07:50:42.125Z,65.05
2022-12-25T07:55:44.904Z,64.68
2022-12-25T08:00:47.832Z,64.83
2022-12-25T08:05:50.755Z,64.82
2022-12-25T08:10:53.522Z,65.18
2022-12-25T08:16:01.148Z,65.20
2022-12-25T08:21:06.808Z,64.96
2022-12-25T08:26:13.639Z,64.90
2022-12-25T08:31:20.464Z,64.86
2022-12-25T08:36:24.390Z,65.09
2022-12-25T08:41:27.721Z,64.94
2022-12-25T08:46:30.865Z,64.65
2022-12-25T08:51:34.580Z,64.54
2022-12-25T08:56:37.423Z,64.31
2022-12-25T09:01:40.252Z,64.50
2022-12-25T09:06:43.233Z,64.27
2022-12-25T09:11:46.048Z,63.95
2022-12-25T09:16:51.595Z,63.89
2022-12-25T09:21:54.508Z,64.41
2022-12-25T09:26:57.304Z,64.93
2022-12-25T09:32:00.262Z,64.74
2022-12-25T09:37:03.763Z,64.35
2022-12-25T09:42:20.054Z,63.86
2022-12-25T09:47:27.995Z,63.48
2022-12-25T09:52:53.127Z,63.79
2022-12-25T09:58:01.675Z,63.00
2022-12-25T10:03:23.205Z,62.94
2022-12-25T10:08:31.858Z,62.96
2022-12-25T10:13:37.648Z,63.99
2022-12-25T10:18:59.043Z,63.77
2022-12-25T10:24:07.976Z,64.28
2022-12-25T10:29:16.827Z,64.34
2022-12-25T10:34:19.853Z,64.46
2022-12-25T10:39:26.269Z,64.90
2022-12-25T10:44:29.221Z,64.68
2022-12-25T10:49:35.945Z,64.22
2022-12-25T10:54:38.762Z,64.45
2022-12-25T10:59:49.655Z,64.89
2022-12-25T11:05:09.742Z,65.04
2022-12-25T11:10:24.074Z,64.83
2022-12-25T11:15:44.770Z,64.65
2022-12-25T11:20:50.436Z,64.57
2022-12-25T11:26:04.137Z,65.19
2022-12-25T11:31:13.281Z,65.23
2022-12-25T11:36:23.049Z,66.06
2022-12-25T11:41:32.720Z,66.53
2022-12-25T11:46:45.449Z,66.47
2022-12-25T11:51:52.044Z,66.49
2022-12-25T11:57:00.140Z,66.60
2022-12-25T12:02:21.894Z,65.96
2022-12-25T12:07:29.314Z,66.09
2022-12-25T12:12:55.048Z,65.54
2022-12-25T12:18:28.779Z,65.71
2022-12-25T12:23:35.929Z,65.62
2022-12-25T12:28:46.319Z,65.77
2022-12-25T12:33:55.047Z,65.81
2022-12-25T12:38:59.148Z,66.08
2022-12-25T12:44:05.247Z,66.18
2022-12-25T12:49:22.268Z,66.69
2022-12-25T12:54:27.942Z,66.56
2022-12-25T12:59:46.968Z,66.50
2022-12-25T13:05:05.874Z,66.63
2022-12-25T13:10:13.751Z,67.11
2022-12-25T13:15:16.610Z,66.79
2022-12-25T13:20:55.285Z,66.42
2022-12-25T13:26:14.858Z,66.31
2022-12-25T13:31:20.886Z,66.12
2022-12-25T13:36:24.971Z,66.51
2022-12-25T13:41:59.379Z,66.82
2022-12-25T13:47:27.708Z,66.61
2022-12-25T13:52:38.093Z,66.65
2022-12-25T13:58:11.216Z,66.88
2022-12-25T14:03:37.328Z,66.72
2022-12-25T14:08:40.313Z,66.40
2022-12-25T14:13:45.300Z,66.45
2022-12-25T14:18:53.943Z,66.34
2022-12-25T14:23:57.425Z,66.45
2022-12-25T14:29:11.047Z,66.59
2022-12-25T14:34:22.088Z,66.76
2022-12-25T14:39:35.542Z,66.44
2022-12-25T14:44:40.121Z,66.45
2022-12-25T14:49:43.637Z,66.63
2022-12-25T14:55:07.825Z,67.02
2022-12-25T15:00:32.437Z,67.31
2022-12-25T15:05:36.779Z,67.82
2022-12-25T15:16:14.405Z,67.68
2022-12-25T15:21:20.199Z,68.01
2022-12-25T15:26:23.227Z,68.71
2022-12-25T15:31:30.480Z,69.99
2022-12-25T15:36:34.310Z,70.24
2022-12-25T15:42:13.877Z,70.50
2022-12-25T15:47:20.307Z,71.03
2022-12-25T15:52:23.154Z,71.70
2022-12-25T15:57:26.449Z,72.48
2022-12-25T16:02:29.492Z,73.09
2022-12-25T16:07:33.681Z,73.85
2022-12-25T16:12:36.509Z,73.01
2022-12-25T16:17:39.680Z,72.18
2022-12-25T16:22:42.541Z,72.24
2022-12-25T16:27:45.801Z,72.23
2022-12-25T16:32:50.275Z,72.14
2022-12-25T16:37:53.086Z,72.54
2022-12-25T16:42:56.358Z,72.29
2022-12-25T16:47:59.196Z,72.11
2022-12-25T16:53:02.070Z,72.71
2022-12-25T16:58:06.231Z,73.17
2022-12-25T17:03:09.160Z,72.69
2022-12-25T17:08:12.061Z,72.83
2022-12-25T17:13:14.859Z,73.41
2022-12-25T17:18:21.882Z,73.28
2022-12-25T17:23:24.783Z,73.88
2022-12-25T17:28:27.657Z,74.43
2022-12-25T17:33:30.749Z,74.46
2022-12-25T17:38:34.932Z,74.52
2022-12-25T17:43:38.519Z,74.72
2022-12-25T17:48:41.909Z,74.30
2022-12-25T17:53:47.439Z,74.65
2022-12-25T17:58:52.358Z,74.56
2022-12-25T18:03:55.464Z,74.30
2022-12-25T18:08:58.428Z,74.23
2022-12-25T18:14:04.079Z,74.30
2022-12-25T18:19:07.050Z,74.51
2022-12-25T18:24:10.258Z,74.74
2022-12-25T18:29:13.067Z,74.60
2022-12-25T18:34:15.948Z,74.60
2022-12-25T18:39:19.244Z,75.37
2022-12-25T18:44:22.071Z,75.96
2022-12-25T18:49:24.907Z,75.89
2022-12-25T18:54:27.728Z,76.09
2022-12-25T18:59:31.250Z,76.67
2022-12-25T19:04:34.535Z,76.09
2022-12-25T19:09:37.804Z,76.50
2022-12-25T19:14:47.691Z,77.05
2022-12-25T19:19:51.165Z,77.31
2022-12-25T19:24:54.035Z,77.13
2022-12-25T19:29:56.831Z,77.57
2022-12-25T19:35:04.426Z,78.53
2022-12-25T19:40:07.921Z,78.35
2022-12-25T19:45:11.184Z,78.56
2022-12-25T19:50:14.095Z,78.56
2022-12-25T19:55:20.191Z,78.26
2022-12-25T20:00:23.033Z,78.25
2022-12-25T20:05:25.903Z,78.17
2022-12-25T20:10:28.723Z,78.22
2022-12-25T20:15:31.553Z,78.07
2022-12-25T20:20:34.417Z,78.48
2022-12-25T20:25:43.431Z,78.18
2022-12-25T20:30:46.278Z,77.91
2022-12-25T20:35:49.557Z,77.47
2022-12-25T20:41:26.106Z,77.22
2022-12-25T20:46:24.859Z,77.66
2022-12-25T20:51:28.266Z,77.16
2022-12-25T20:56:31.231Z,76.72
2022-12-25T21:01:34.178Z,77.05
2022-12-25T21:06:37.081Z,77.13
2022-12-25T21:11:39.972Z,76.80
2022-12-25T21:16:44.445Z,76.86
2022-12-25T21:21:50.136Z,76.98
2022-12-25T21:26:52.942Z,76.83
2022-12-25T21:32:14.451Z,76.78
2022-12-25T21:37:17.308Z,76.73
2022-12-25T21:42:20.107Z,76.85
2022-12-25T21:47:22.890Z,76.91
2022-12-25T21:52:25.734Z,76.96
2022-12-25T21:57:28.508Z,77.14
2022-12-25T22:02:31.896Z,77.06
2022-12-25T22:07:35.443Z,76.78
2022-12-25T22:12:56.503Z,76.68
2022-12-25T22:18:17.710Z,77.23
2022-12-25T22:23:20.467Z,77.59
2022-12-25T22:28:23.284Z,77.57
2022-12-25T22:33:28.076Z,77.57
2022-12-25T22:38:31.373Z,78.02
2022-12-25T22:44:14.540Z,77.97
2022-12-25T22:48:57.327Z,77.93
2022-12-25T22:54:03.527Z,78.10
2022-12-25T22:59:07.027Z,77.80
2022-12-25T23:04:11.165Z,77.92
2022-12-25T23:09:22.098Z,77.65
2022-12-25T23:14:39.230Z,78.65
2022-12-25T23:20:13.682Z,79.03
2022-12-25T23:25:35.133Z,78.18
2022-12-25T23:30:37.982Z,78.16
2022-12-25T23:35:40.829Z,78.25
2022-12-25T23:40:43.623Z,78.18
2022-12-25T23:45:46.453Z,78.04
2022-12-25T23:50:49.298Z,78.74
2022-12-25T23:55:55.782Z,79.51
